Time;durP1;ratioP1;P1;durP2;ratioP2;P2;SDS_P1;SDS_P2;PMS_P1;PMS_P2;Temp;Humidity;BMP_temperature;BMP_pressure;BME280_temperature;BME280_humidity;BME280_pressure;Samples;Min_cycle;Max_cycle;Signal;HPM_P1;HPM_P2
2024/02/17 00:00:00;;;;;;;6.45;3.53;;;12.40;87.20;;;;;;5027737;28;20534;-66
2024/02/17 00:02:27;;;;;;;10.43;3.88;;;12.40;87.30;;;;;;5028979;28;20129;-66
2024/02/17 00:04:53;;;;;;;7.43;3.97;;;12.40;87.30;;;;;;5025658;28;20493;-66
2024/02/17 00:07:19;;;;;;;5.90;3.88;;;12.30;87.20;;;;;;5026166;28;20468;-66
2024/02/17 00:09:45;;;;;;;5.10;2.70;;;12.30;87.30;;;;;;5031468;28;20124;-66
2024/02/17 00:12:11;;;;;;;6.85;3.10;;;12.30;87.50;;;;;;5029359;28;20037;-66
2024/02/17 00:14:38;;;;;;;6.78;3.67;;;12.20;87.40;;;;;;5034185;28;20575;-66
2024/02/17 00:17:05;;;;;;;6.47;3.53;;;12.10;87.50;;;;;;5030964;28;20463;-66
2024/02/17 00:19:32;;;;;;;7.28;3.75;;;12.10;87.70;;;;;;5032980;28;20053;-66
2024/02/17 00:21:58;;;;;;;7.00;3.63;;;12.10;87.80;;;;;;5031460;28;20033;-66
2024/02/17 00:24:24;;;;;;;8.52;3.90;;;12.10;87.80;;;;;;5033307;28;20025;-66
2024/02/17 00:26:51;;;;;;;5.15;3.08;;;12.10;87.70;;;;;;5030758;28;20030;-66
2024/02/17 00:29:17;;;;;;;8.77;3.47;;;12.00;87.80;;;;;;5031044;28;20407;-66
2024/02/17 00:31:43;;;;;;;9.18;4.20;;;12.10;87.90;;;;;;5031395;28;20372;-66
2024/02/17 00:34:09;;;;;;;6.75;4.10;;;12.10;87.80;;;;;;5034702;28;20060;-66
2024/02/17 00:36:35;;;;;;;5.32;3.60;;;12.10;87.80;;;;;;5031360;28;20053;-66
2024/02/17 00:39:01;;;;;;;13.50;4.60;;;12.10;87.70;;;;;;5066143;28;20488;-64
2024/02/17 00:41:27;;;;;;;8.40;4.25;;;12.10;87.80;;;;;;5030567;28;20269;-66
2024/02/17 00:43:53;;;;;;;5.25;3.50;;;12.10;87.70;;;;;;5029414;28;20037;-66
2024/02/17 00:46:19;;;;;;;7.45;3.55;;;12.20;87.70;;;;;;5033356;28;20025;-66
2024/02/17 00:48:45;;;;;;;5.53;3.55;;;12.10;87.70;;;;;;5030537;28;20373;-66
2024/02/17 00:51:14;;;;;;;6.30;3.47;;;12.10;87.70;;;;;;5031733;28;20550;-66
2024/02/17 00:53:42;;;;;;;14.02;4.32;;;12.10;87.80;;;;;;5034544;28;20037;-66
2024/02/17 00:56:08;;;;;;;5.28;3.70;;;12.10;87.90;;;;;;5030456;28;20378;-66
2024/02/17 00:58:34;;;;;;;5.55;4.03;;;12.10;87.90;;;;;;5035146;28;20042;-66
2024/02/17 01:01:01;;;;;;;5.95;3.42;;;12.10;87.90;;;;;;5026719;28;20037;-66
2024/02/17 01:03:27;;;;;;;9.13;4.78;;;12.10;87.90;;;;;;5030715;28;20056;-64
2024/02/17 01:05:53;;;;;;;7.13;4.00;;;12.10;87.90;;;;;;5030195;28;20053;-66
2024/02/17 01:08:19;;;;;;;6.25;4.00;;;12.10;88.20;;;;;;5029856;28;20139;-66
2024/02/17 01:10:45;;;;;;;7.78;4.93;;;12.00;88.10;;;;;;5034490;28;20124;-66
2024/02/17 01:13:12;;;;;;;5.85;3.72;;;12.00;88.30;;;;;;5033530;28;20061;-66
2024/02/17 01:15:39;;;;;;;5.45;3.65;;;12.00;88.30;;;;;;5035437;28;20041;-66
2024/02/17 01:18:05;;;;;;;8.57;3.47;;;12.00;88.40;;;;;;5032891;28;20025;-66
2024/02/17 01:20:31;;;;;;;7.95;4.30;;;12.00;88.40;;;;;;5030101;28;20095;-66
2024/02/17 01:22:57;;;;;;;7.40;4.85;;;12.10;88.40;;;;;;5025972;28;20525;-66
2024/02/17 01:25:24;;;;;;;9.65;3.80;;;12.10;88.50;;;;;;5029713;28;20136;-66
2024/02/17 01:27:51;;;;;;;7.50;4.38;;;12.10;88.50;;;;;;5029925;28;20030;-66
2024/02/17 01:30:17;;;;;;;7.88;4.28;;;12.10;88.30;;;;;;5029520;28;20021;-66
2024/02/17 01:32:43;;;;;;;6.25;3.38;;;12.00;88.40;;;;;;5031883;28;20037;-66
2024/02/17 01:35:10;;;;;;;12.23;5.10;;;12.00;88.50;;;;;;5028278;28;20389;-66
2024/02/17 01:37:36;;;;;;;6.85;3.88;;;12.00;88.50;;;;;;5029941;28;20140;-66
2024/02/17 01:40:03;;;;;;;6.82;3.22;;;12.00;88.60;;;;;;5026542;28;20037;-66
2024/02/17 01:42:29;;;;;;;7.70;4.00;;;12.00;88.60;;;;;;5026956;28;20032;-66
2024/02/17 01:44:55;;;;;;;9.63;4.50;;;12.00;88.50;;;;;;5029381;28;20501;-66
2024/02/17 01:47:21;;;;;;;8.93;4.60;;;12.00;88.60;;;;;;5028698;28;20049;-66
2024/02/17 01:49:48;;;;;;;9.68;4.45;;;12.00;88.50;;;;;;5030956;28;20443;-66
2024/02/17 01:52:15;;;;;;;6.57;4.40;;;12.00;88.50;;;;;;5029881;28;20029;-66
2024/02/17 01:54:43;;;;;;;8.73;3.85;;;12.10;88.50;;;;;;5029382;28;20532;-66
2024/02/17 01:57:10;;;;;;;5.20;3.28;;;12.00;88.50;;;;;;5029635;28;20053;-66
2024/02/17 01:59:37;;;;;;;5.35;3.60;;;12.10;88.50;;;;;;5027122;28;20029;-65
2024/02/17 02:02:04;;;;;;;7.22;3.17;;;12.10;88.40;;;;;;5027507;28;20065;-66
2024/02/17 02:04:30;;;;;;;11.70;4.22;;;12.10;88.40;;;;;;5036184;28;20032;-67
2024/02/17 02:06:56;;;;;;;7.40;4.35;;;12.10;88.30;;;;;;5028875;28;20492;-66
2024/02/17 02:09:25;;;;;;;8.07;4.53;;;12.10;88.30;;;;;;5030719;28;20057;-66
2024/02/17 02:11:56;;;;;;;5.80;3.20;;;12.10;88.20;;;;;;5030485;28;20458;-68
2024/02/17 02:14:23;;;;;;;8.05;3.70;;;12.10;88.10;;;;;;5029194;28;20049;-68
2024/02/17 02:16:49;;;;;;;8.20;3.97;;;12.10;88.10;;;;;;5029196;28;20057;-68
2024/02/17 02:19:16;;;;;;;7.13;4.25;;;12.20;88.10;;;;;;5029032;28;20040;-68
2024/02/17 02:21:43;;;;;;;8.82;3.97;;;12.20;88.00;;;;;;5028143;28;20484;-68
2024/02/17 02:24:09;;;;;;;9.45;4.30;;;12.10;88.10;;;;;;5028932;28;20116;-68
2024/02/17 02:26:36;;;;;;;6.85;4.30;;;12.10;88.10;;;;;;5026308;28;20064;-68
2024/02/17 02:29:03;;;;;;;10.25;4.22;;;12.10;88.10;;;;;;5028376;28;20033;-68
2024/02/17 02:31:29;;;;;;;8.57;4.82;;;12.10;88.10;;;;;;5023309;28;20029;-66
2024/02/17 02:33:56;;;;;;;8.80;4.03;;;12.10;88.10;;;;;;5022730;28;20025;-67
2024/02/17 02:36:23;;;;;;;7.35;4.00;;;12.20;88.00;;;;;;5033300;28;20510;-65
2024/02/17 02:38:49;;;;;;;6.18;3.72;;;12.10;87.90;;;;;;5027938;28;20072;-66
2024/02/17 02:41:15;;;;;;;5.88;2.85;;;12.10;88.00;;;;;;5034943;28;20036;-66
2024/02/17 02:43:43;;;;;;;13.00;3.50;;;12.10;88.00;;;;;;5026612;28;20037;-66
2024/02/17 02:46:10;;;;;;;5.75;3.42;;;12.10;88.00;;;;;;5028932;28;20075;-66
2024/02/17 02:48:36;;;;;;;9.32;3.97;;;12.20;88.00;;;;;;5031498;28;20037;-66
2024/02/17 02:51:02;;;;;;;6.47;3.95;;;12.10;87.90;;;;;;5028803;28;20057;-66
2024/02/17 02:53:28;;;;;;;6.43;3.67;;;12.10;88.00;;;;;;5028757;28;20471;-66
2024/02/17 02:55:56;;;;;;;17.42;4.55;;;12.20;88.00;;;;;;5030205;28;20026;-66
2024/02/17 02:58:22;;;;;;;7.05;3.90;;;12.10;87.90;;;;;;5030457;28;20108;-66
2024/02/17 03:00:49;;;;;;;8.80;4.45;;;12.10;87.80;;;;;;5029440;28;20044;-66
2024/02/17 03:03:15;;;;;;;8.50;3.78;;;12.10;87.80;;;;;;5030080;28;20083;-66
2024/02/17 03:05:41;;;;;;;12.15;4.85;;;12.10;87.80;;;;;;5038054;28;20056;-66
2024/02/17 03:08:07;;;;;;;5.40;3.55;;;12.10;87.80;;;;;;5037270;28;20453;-66
2024/02/17 03:10:33;;;;;;;4.95;3.03;;;12.10;87.80;;;;;;5029097;28;20029;-66
2024/02/17 03:13:00;;;;;;;5.68;3.25;;;12.20;87.80;;;;;;5027598;28;20087;-66
2024/02/17 03:15:26;;;;;;;8.15;3.80;;;12.20;87.70;;;;;;5032229;28;20104;-66
2024/02/17 03:17:52;;;;;;;4.63;2.78;;;12.20;87.60;;;;;;5032170;28;20462;-66
2024/02/17 03:20:19;;;;;;;4.25;3.30;;;12.20;87.70;;;;;;5036614;28;20120;-66
2024/02/17 03:22:45;;;;;;;10.35;3.83;;;12.20;87.50;;;;;;5032653;28;20068;-68
2024/02/17 03:25:14;;;;;;;6.80;4.05;;;12.20;87.50;;;;;;5032830;28;20029;-68
2024/02/17 03:27:40;;;;;;;8.73;4.20;;;12.30;87.50;;;;;;5039280;28;20056;-68
2024/02/17 03:30:07;;;;;;;10.63;4.47;;;12.20;87.40;;;;;;5035199;28;20032;-68
2024/02/17 03:32:34;;;;;;;14.63;4.47;;;12.20;87.50;;;;;;5044555;28;20032;-68
2024/02/17 03:35:04;;;;;;;7.03;4.15;;;12.20;87.60;;;;;;5032890;28;20091;-68
2024/02/17 03:37:30;;;;;;;6.00;4.15;;;12.10;87.70;;;;;;5035012;28;20057;-68
2024/02/17 03:39:57;;;;;;;8.75;4.22;;;12.10;87.70;;;;;;5029942;28;20041;-68
2024/02/17 03:42:23;;;;;;;7.20;4.00;;;12.10;87.70;;;;;;5035901;28;20018;-68
2024/02/17 03:44:49;;;;;;;9.55;4.97;;;12.10;87.70;;;;;;5030175;28;20075;-68
2024/02/17 03:47:15;;;;;;;9.75;4.85;;;12.10;87.80;;;;;;5039615;28;20029;-68
2024/02/17 03:49:42;;;;;;;12.30;4.32;;;12.10;87.80;;;;;;5035620;28;20053;-68
2024/02/17 03:52:08;;;;;;;5.00;3.13;;;12.10;87.80;;;;;;5039035;28;20044;-68
2024/02/17 03:54:34;;;;;;;7.30;3.97;;;12.10;87.80;;;;;;5033351;28;20025;-68
2024/02/17 03:57:00;;;;;;;5.22;3.85;;;12.10;87.70;;;;;;5031974;28;20385;-68
2024/02/17 03:59:26;;;;;;;7.25;3.83;;;12.10;87.70;;;;;;5035123;28;20041;-68
2024/02/17 04:01:55;;;;;;;9.05;5.45;;;12.10;87.60;;;;;;5033184;28;20053;-68
2024/02/17 04:04:24;;;;;;;8.18;4.60;;;12.10;87.60;;;;;;5032042;28;20057;-68
2024/02/17 04:06:50;;;;;;;9.95;5.35;;;12.10;87.70;;;;;;5030769;28;20484;-68
2024/02/17 04:09:17;;;;;;;11.38;4.07;;;12.10;87.70;;;;;;5032740;28;20017;-68
2024/02/17 04:11:43;;;;;;;7.60;3.78;;;12.10;87.60;;;;;;5027659;28;20064;-68
2024/02/17 04:14:10;;;;;;;8.85;4.63;;;12.10;87.60;;;;;;5018139;28;20033;-68
2024/02/17 04:16:36;;;;;;;7.80;4.93;;;12.10;87.60;;;;;;5032464;28;20033;-66
2024/02/17 04:19:02;;;;;;;7.97;5.00;;;12.10;87.70;;;;;;5032258;28;20018;-66
2024/02/17 04:21:28;;;;;;;6.47;4.22;;;12.10;87.70;;;;;;5030006;28;20065;-66
2024/02/17 04:23:54;;;;;;;9.13;4.60;;;12.10;87.70;;;;;;5030300;28;20499;-66
2024/02/17 04:26:20;;;;;;;6.93;4.25;;;12.10;87.80;;;;;;5032240;28;20061;-66
2024/02/17 04:28:46;;;;;;;5.90;4.18;;;12.10;87.80;;;;;;5026796;28;20053;-66
2024/02/17 04:31:12;;;;;;;11.88;4.05;;;12.10;87.80;;;;;;5028821;28;20035;-66
2024/02/17 04:33:38;;;;;;;7.80;4.20;;;12.10;87.80;;;;;;5006977;28;20046;-66
2024/02/17 04:36:06;;;;;;;9.20;4.85;;;12.10;87.70;;;;;;5026981;28;20191;-66
2024/02/17 04:38:32;;;;;;;10.32;4.93;;;12.10;87.70;;;;;;5037425;28;20045;-68
2024/02/17 04:40:58;;;;;;;10.38;4.90;;;12.10;87.80;;;;;;5014558;28;20428;-68
2024/02/17 04:43:24;;;;;;;7.05;4.30;;;12.10;87.80;;;;;;5041323;28;20029;-68
2024/02/17 04:45:50;;;;;;;6.40;3.90;;;12.10;87.80;;;;;;5035064;28;20116;-68
2024/02/17 04:48:16;;;;;;;5.45;3.47;;;12.00;87.80;;;;;;5037821;28;20093;-68
2024/02/17 04:50:42;;;;;;;7.65;4.43;;;12.10;87.70;;;;;;5044485;28;20048;-68
2024/02/17 04:53:08;;;;;;;10.73;5.30;;;12.10;87.80;;;;;;5041125;28;20428;-68
2024/02/17 04:55:34;;;;;;;5.70;3.42;;;12.10;87.80;;;;;;5035156;28;20044;-68
2024/02/17 04:58:00;;;;;;;6.35;3.50;;;12.10;87.80;;;;;;5032313;28;20033;-68
2024/02/17 05:00:26;;;;;;;4.47;3.47;;;12.10;87.70;;;;;;5038570;28;20389;-68
2024/02/17 05:02:52;;;;;;;11.13;4.50;;;12.20;87.70;;;;;;5031566;28;20033;-68
2024/02/17 05:05:19;;;;;;;5.55;3.55;;;12.10;87.60;;;;;;5028041;28;20029;-68
2024/02/17 05:07:48;;;;;;;6.50;3.58;;;12.10;87.60;;;;;;5035003;28;20026;-68
2024/02/17 05:10:14;;;;;;;7.78;3.80;;;12.10;87.60;;;;;;5028654;28;20041;-68
2024/02/17 05:12:41;;;;;;;7.75;4.07;;;12.10;87.60;;;;;;5034459;28;20052;-68
2024/02/17 05:15:07;;;;;;;9.43;3.88;;;12.10;87.60;;;;;;5029256;28;20042;-68
2024/02/17 05:17:35;;;;;;;8.75;4.05;;;12.10;87.70;;;;;;5032340;28;20584;-68
2024/02/17 05:20:01;;;;;;;6.75;4.72;;;12.10;87.70;;;;;;5045955;28;20037;-68
2024/02/17 05:22:27;;;;;;;9.63;3.75;;;12.10;87.70;;;;;;5025874;28;20045;-68
2024/02/17 05:24:53;;;;;;;10.55;4.47;;;12.10;87.80;;;;;;5031574;28;20029;-68
2024/02/17 05:27:19;;;;;;;9.98;4.95;;;12.10;87.80;;;;;;5066364;28;20041;-68
2024/02/17 05:29:45;;;;;;;7.78;4.65;;;12.10;87.80;;;;;;5031943;28;20041;-68
2024/02/17 05:32:11;;;;;;;8.07;4.57;;;12.00;87.90;;;;;;5030947;28;20051;-68
2024/02/17 05:34:39;;;;;;;9.02;4.10;;;12.00;87.90;;;;;;5024284;28;21650;-66
2024/02/17 05:37:06;;;;;;;5.75;4.03;;;12.00;87.90;;;;;;5028606;28;20041;-66
2024/02/17 05:39:33;;;;;;;4.15;2.72;;;12.10;87.90;;;;;;5028183;28;20045;-66
2024/02/17 05:41:59;;;;;;;7.65;3.03;;;12.10;87.80;;;;;;5030836;28;20036;-65
2024/02/17 05:44:26;;;;;;;5.38;3.50;;;12.10;87.80;;;;;;5029262;28;20025;-66
2024/02/17 05:46:52;;;;;;;6.43;3.15;;;12.10;87.80;;;;;;5030854;28;20029;-68
2024/02/17 05:49:21;;;;;;;5.63;3.63;;;12.10;87.80;;;;;;5032009;28;20489;-68
2024/02/17 05:51:49;;;;;;;8.10;3.33;;;12.10;87.70;;;;;;5024993;28;20030;-68
2024/02/17 05:54:18;;;;;;;5.05;3.33;;;12.10;87.80;;;;;;5033359;28;20037;-68
2024/02/17 05:56:45;;;;;;;6.32;3.90;;;12.10;87.80;;;;;;5030799;28;20440;-68
2024/02/17 05:59:11;;;;;;;6.03;3.88;;;12.10;87.80;;;;;;5031540;28;20056;-68
2024/02/17 06:01:37;;;;;;;8.55;3.25;;;12.10;87.80;;;;;;5026786;28;20087;-68
2024/02/17 06:04:03;;;;;;;8.48;4.72;;;12.10;87.90;;;;;;5032181;28;20052;-68
2024/02/17 06:06:28;;;;;;;7.03;4.47;;;12.10;87.90;;;;;;5035248;28;20025;-66
2024/02/17 06:08:54;;;;;;;7.80;3.83;;;12.00;87.90;;;;;;5032939;28;20460;-66
2024/02/17 06:11:20;;;;;;;10.13;4.03;;;12.00;87.90;;;;;;5025866;28;20029;-65
2024/02/17 06:13:45;;;;;;;5.93;3.55;;;12.10;88.00;;;;;;5022621;28;20114;-65
2024/02/17 06:16:11;;;;;;;4.25;3.13;;;12.10;87.90;;;;;;5012744;28;20057;-65
2024/02/17 06:21:24;;;;;;;4.03;2.75;;;12.10;87.80;;;;;;5030504;28;20043;-65
2024/02/17 06:23:53;;;;;;;8.10;3.13;;;12.10;87.80;;;;;;5026591;28;20037;-65
2024/02/17 06:26:29;;;;;;;4.07;2.50;;;12.10;87.90;;;;;;5022561;28;20022;-65
2024/02/17 06:28:57;;;;;;;4.80;3.28;;;12.10;87.80;;;;;;5025496;28;20017;-68
2024/02/17 06:31:24;;;;;;;6.20;3.40;;;12.10;87.90;;;;;;5031368;28;20030;-68
2024/02/17 06:33:51;;;;;;;6.30;3.33;;;12.10;87.90;;;;;;5033702;28;20143;-68
2024/02/17 06:36:18;;;;;;;5.03;2.63;;;12.00;87.90;;;;;;5029794;28;20064;-68
2024/02/17 06:38:43;;;;;;;5.15;3.08;;;12.10;87.90;;;;;;5031350;28;20048;-68
2024/02/17 06:41:10;;;;;;;6.82;3.80;;;12.00;87.80;;;;;;5011042;28;20381;-64
2024/02/17 06:43:37;;;;;;;5.90;3.88;;;12.00;87.90;;;;;;5022031;28;20034;-65
2024/02/17 06:46:04;;;;;;;5.72;3.72;;;11.90;88.10;;;;;;5022389;28;20045;-64
2024/02/17 06:48:30;;;;;;;9.82;4.15;;;11.90;88.10;;;;;;5028104;28;20021;-64
2024/02/17 06:50:55;;;;;;;8.95;3.58;;;11.90;88.40;;;;;;5027419;28;20030;-64
2024/02/17 06:53:21;;;;;;;7.95;4.30;;;11.90;88.40;;;;;;5028948;28;20041;-65
2024/02/17 06:55:47;;;;;;;5.75;3.70;;;11.90;88.40;;;;;;5010977;28;20110;-65
2024/02/17 06:58:14;;;;;;;4.75;3.90;;;11.90;88.40;;;;;;5027865;28;20021;-64
2024/02/17 07:00:40;;;;;;;6.07;3.65;;;11.90;88.40;;;;;;5019716;28;20104;-65
2024/02/17 07:03:07;;;;;;;7.00;3.28;;;11.90;88.40;;;;;;5027020;28;20026;-64
2024/02/17 07:05:33;;;;;;;5.30;3.47;;;12.00;88.50;;;;;;5028980;28;20400;-64
2024/02/17 07:07:59;;;;;;;6.95;3.90;;;12.00;88.40;;;;;;5027760;28;20021;-64
2024/02/17 07:10:25;;;;;;;5.55;3.00;;;12.00;88.30;;;;;;5031701;28;20029;-64
2024/02/17 07:12:50;;;;;;;6.05;3.17;;;12.00;88.30;;;;;;5027643;28;20420;-64
2024/02/17 07:15:16;;;;;;;9.45;4.30;;;12.00;88.30;;;;;;5027177;28;20112;-64
2024/02/17 07:17:42;;;;;;;5.28;2.88;;;12.00;88.30;;;;;;5029288;28;20042;-64
2024/02/17 07:20:09;;;;;;;3.58;2.60;;;12.10;88.20;;;;;;5019547;28;20045;-64
2024/02/17 07:22:35;;;;;;;8.00;4.00;;;12.10;88.20;;;;;;5028755;28;20477;-64
2024/02/17 07:25:02;;;;;;;7.45;3.97;;;12.10;88.20;;;;;;5025581;28;20037;-64
2024/02/17 07:27:27;;;;;;;6.38;3.50;;;12.10;88.10;;;;;;5029205;28;20482;-64
2024/02/17 07:29:53;;;;;;;5.68;3.50;;;12.10;88.10;;;;;;5023472;28;20040;-65
2024/02/17 07:32:23;;;;;;;6.00;3.17;;;12.10;88.20;;;;;;5026078;28;20038;-64
2024/02/17 07:34:51;;;;;;;7.25;4.18;;;12.10;88.20;;;;;;5017771;28;20022;-64
2024/02/17 07:37:19;;;;;;;3.15;2.85;;;12.10;88.10;;;;;;5026610;28;20068;-67
2024/02/17 07:39:48;;;;;;;9.10;3.40;;;12.10;88.10;;;;;;5026825;28;20087;-69
2024/02/17 07:42:13;;;;;;;5.32;3.60;;;12.10;88.10;;;;;;5024362;28;20511;-70
2024/02/17 07:44:45;;;;;;;5.38;3.17;;;12.10;88.00;;;;;;5025019;28;20037;-70
2024/02/17 07:47:11;;;;;;;4.57;2.85;;;12.10;88.10;;;;;;5031874;28;20018;-69
2024/02/17 07:49:37;;;;;;;5.50;2.92;;;12.20;88.10;;;;;;5029853;28;20037;-68
2024/02/17 07:52:02;;;;;;;5.00;3.08;;;12.20;88.00;;;;;;5035328;28;20022;-69
2024/02/17 07:54:28;;;;;;;5.72;3.65;;;12.20;88.00;;;;;;5027529;28;20037;-71
2024/02/17 07:56:54;;;;;;;8.60;3.60;;;12.20;88.00;;;;;;5032499;28;20045;-71
2024/02/17 07:59:19;;;;;;;9.57;3.53;;;12.20;87.90;;;;;;5028104;28;20021;-68
2024/02/17 08:01:45;;;;;;;6.13;3.28;;;12.30;87.90;;;;;;5035434;28;20028;-68
2024/02/17 08:04:10;;;;;;;3.97;2.60;;;12.30;87.90;;;;;;5026733;28;20033;-67
2024/02/17 08:06:36;;;;;;;6.80;3.88;;;12.30;87.80;;;;;;5031877;28;20132;-66
2024/02/17 08:09:03;;;;;;;6.45;3.80;;;12.40;87.80;;;;;;5029571;28;20033;-68
2024/02/17 08:11:28;;;;;;;6.78;3.70;;;12.40;87.70;;;;;;5027393;28;20084;-65
2024/02/17 08:13:54;;;;;;;6.07;4.10;;;12.50;87.60;;;;;;5030263;28;20033;-65
2024/02/17 08:16:22;;;;;;;4.57;2.85;;;12.50;87.70;;;;;;5031035;28;20087;-65
2024/02/17 08:18:47;;;;;;;7.90;3.47;;;12.50;87.70;;;;;;5036443;28;20129;-66
2024/02/17 08:21:13;;;;;;;6.25;3.38;;;12.50;87.70;;;;;;5030010;28;20116;-67
2024/02/17 08:23:41;;;;;;;7.65;3.78;;;12.60;87.70;;;;;;5027042;28;20029;-68
2024/02/17 08:26:10;;;;;;;6.28;4.38;;;12.50;87.50;;;;;;5030999;28;20105;-66
2024/02/17 08:28:36;;;;;;;7.78;3.47;;;12.50;87.70;;;;;;5031389;28;20499;-65
2024/02/17 08:31:03;;;;;;;7.55;4.07;;;12.50;87.80;;;;;;5015700;28;20116;-66
2024/02/17 08:33:28;;;;;;;8.93;3.92;;;12.50;87.80;;;;;;5031515;28;20057;-65
2024/02/17 08:35:54;;;;;;;8.63;3.53;;;12.50;87.80;;;;;;5028591;28;20060;-64
2024/02/17 08:38:20;;;;;;;10.13;4.10;;;12.50;87.90;;;;;;5028341;28;20107;-64
2024/02/17 08:40:45;;;;;;;6.88;3.67;;;12.50;87.90;;;;;;5013646;28;20034;-66
2024/02/17 08:43:11;;;;;;;7.22;3.80;;;12.60;87.80;;;;;;5026405;28;20024;-66
2024/02/17 08:45:37;;;;;;;8.48;4.50;;;12.60;87.70;;;;;;5027678;28;20501;-66
2024/02/17 08:48:03;;;;;;;10.95;4.88;;;12.60;87.90;;;;;;5063627;28;20136;-66
2024/02/17 08:50:29;;;;;;;11.45;5.07;;;12.50;87.80;;;;;;5027712;28;20044;-65
2024/02/17 08:52:54;;;;;;;10.18;4.95;;;12.50;87.90;;;;;;5031019;28;20393;-66
2024/02/17 08:55:20;;;;;;;8.20;3.78;;;12.50;88.00;;;;;;5055177;28;20688;-66
2024/02/17 08:57:46;;;;;;;11.40;4.47;;;12.60;87.90;;;;;;5034069;28;20021;-65
2024/02/17 09:00:12;;;;;;;11.43;4.68;;;12.60;87.90;;;;;;5040741;28;20075;-67
2024/02/17 09:02:38;;;;;;;10.57;5.18;;;12.60;87.90;;;;;;5030928;28;20048;-65
2024/02/17 09:05:06;;;;;;;10.82;6.05;;;12.60;87.80;;;;;;5033015;28;20432;-65
2024/02/17 09:07:32;;;;;;;6.18;4.03;;;12.60;87.90;;;;;;5023552;28;20048;-67
2024/02/17 09:09:58;;;;;;;7.97;3.97;;;12.60;87.70;;;;;;5031507;28;20423;-67
2024/02/17 09:12:24;;;;;;;11.30;5.70;;;12.60;87.80;;;;;;5031337;28;20057;-67
2024/02/17 09:14:49;;;;;;;6.63;4.05;;;12.60;87.90;;;;;;5034114;28;20034;-67
2024/02/17 09:17:18;;;;;;;8.27;3.67;;;12.60;87.90;;;;;;5029224;28;20029;-67
2024/02/17 09:19:44;;;;;;;8.25;3.75;;;12.70;87.80;;;;;;5020601;28;20095;-67
2024/02/17 09:22:12;;;;;;;10.90;4.40;;;12.70;87.70;;;;;;5033608;28;20482;-67
2024/02/17 09:24:37;;;;;;;10.35;5.30;;;12.80;87.60;;;;;;5027499;28;20480;-65
2024/02/17 09:27:04;;;;;;;9.75;4.57;;;12.90;87.60;;;;;;5021783;28;20044;-65
2024/02/17 09:29:31;;;;;;;8.25;4.50;;;12.90;87.50;;;;;;5024466;28;20072;-65
2024/02/17 09:31:57;;;;;;;8.18;4.03;;;12.90;87.50;;;;;;5024435;28;20028;-66
2024/02/17 09:34:23;;;;;;;8.48;4.47;;;12.90;87.50;;;;;;5030444;28;20469;-65
2024/02/17 09:36:49;;;;;;;11.68;5.50;;;13.00;87.40;;;;;;5020075;28;20058;-65
2024/02/17 09:39:15;;;;;;;10.15;5.03;;;13.00;87.30;;;;;;5037284;28;20036;-66
2024/02/17 09:41:42;;;;;;;7.38;4.18;;;13.10;87.20;;;;;;5035093;28;20096;-66
2024/02/17 09:44:11;;;;;;;5.85;3.90;;;13.20;87.00;;;;;;5022596;28;20044;-67
2024/02/17 09:46:37;;;;;;;7.35;4.38;;;13.20;86.90;;;;;;5025924;28;20109;-68
2024/02/17 09:49:06;;;;;;;13.75;5.15;;;13.30;86.90;;;;;;5031324;28;20438;-67
2024/02/17 09:51:33;;;;;;;9.27;4.43;;;13.30;86.70;;;;;;5033064;28;20044;-67
2024/02/17 09:53:59;;;;;;;10.63;4.72;;;13.30;86.50;;;;;;5031270;28;20823;-67
2024/02/17 09:56:26;;;;;;;10.52;5.47;;;13.20;86.40;;;;;;5033517;28;20033;-67
2024/02/17 09:58:52;;;;;;;11.32;6.00;;;13.20;86.50;;;;;;5035697;28;20132;-67
2024/02/17 10:01:20;;;;;;;9.60;5.95;;;13.20;86.60;;;;;;5034704;28;20112;-67
2024/02/17 10:03:46;;;;;;;7.53;4.40;;;13.30;86.70;;;;;;5031573;28;20647;-67
2024/02/17 10:06:13;;;;;;;11.05;4.75;;;13.40;86.60;;;;;;5032671;28;20038;-67
2024/02/17 10:08:39;;;;;;;14.20;4.70;;;13.40;86.30;;;;;;5022934;28;20025;-67
2024/02/17 10:11:12;;;;;;;9.30;4.40;;;13.50;86.30;;;;;;5022457;28;20040;-67
2024/02/17 10:13:39;;;;;;;11.52;4.72;;;13.60;86.20;;;;;;5025993;28;20037;-69
2024/02/17 10:16:11;;;;;;;8.75;4.25;;;13.60;85.90;;;;;;5023122;28;20030;-70
2024/02/17 10:18:44;;;;;;;8.75;4.00;;;13.60;85.90;;;;;;5025090;28;20776;-70
2024/02/17 10:21:11;;;;;;;8.50;4.78;;;13.70;85.90;;;;;;5028098;28;20045;-70
2024/02/17 10:23:38;;;;;;;9.07;4.70;;;13.70;85.60;;;;;;5017776;28;20442;-70
2024/02/17 10:26:04;;;;;;;6.78;4.45;;;13.70;85.60;;;;;;5026927;28;20436;-70
2024/02/17 10:28:30;;;;;;;8.73;3.95;;;13.90;85.60;;;;;;5008745;28;20050;-68
2024/02/17 10:30:56;;;;;;;7.45;4.53;;;14.00;85.60;;;;;;5030705;28;20107;-68
2024/02/17 10:33:24;;;;;;;6.70;4.00;;;14.10;85.30;;;;;;5027869;28;20592;-68
2024/02/17 10:35:50;;;;;;;6.43;3.70;;;14.10;85.10;;;;;;5020623;28;20119;-68
2024/02/17 10:38:16;;;;;;;6.65;4.03;;;14.00;84.90;;;;;;5022293;28;20045;-68
2024/02/17 10:40:42;;;;;;;6.95;4.97;;;14.10;85.00;;;;;;5032862;28;20451;-68
2024/02/17 10:43:08;;;;;;;6.88;4.47;;;14.00;84.70;;;;;;5025740;28;20080;-68
2024/02/17 10:45:34;;;;;;;10.32;4.68;;;14.00;85.00;;;;;;5033668;28;20519;-68
2024/02/17 10:48:05;;;;;;;7.45;4.15;;;14.00;85.00;;;;;;5030581;28;20146;-68
2024/02/17 10:50:35;;;;;;;5.65;3.72;;;14.00;84.90;;;;;;5031488;28;20034;-68
2024/02/17 10:53:27;;;;;;;7.30;4.13;;;14.00;84.80;;;;;;5019093;28;20100;-68
2024/02/17 10:55:55;;;;;;;10.30;4.22;;;14.10;84.90;;;;;;5025564;28;20509;-68
2024/02/17 10:58:21;;;;;;;10.13;5.22;;;14.10;84.50;;;;;;5027790;28;20029;-68
2024/02/17 11:00:51;;;;;;;6.13;3.63;;;14.00;84.40;;;;;;5022924;28;20034;-68
2024/02/17 11:03:25;;;;;;;9.38;5.10;;;14.00;84.60;;;;;;5018669;28;20396;-65
2024/02/17 11:05:55;;;;;;;5.00;2.88;;;14.00;84.60;;;;;;5030206;28;20052;-65
2024/02/17 11:08:21;;;;;;;5.25;4.22;;;14.10;84.60;;;;;;5010815;28;20020;-65
2024/02/17 11:10:47;;;;;;;5.90;3.45;;;14.20;84.40;;;;;;5008843;28;20900;-66
2024/02/17 11:13:24;;;;;;;4.13;3.28;;;14.20;84.40;;;;;;5021883;28;20509;-65
2024/02/17 11:16:04;;;;;;;7.40;3.38;;;14.20;84.40;;;;;;5015260;28;20036;-65
2024/02/17 11:18:37;;;;;;;5.45;3.90;;;14.20;84.40;;;;;;5020537;28;20032;-65
2024/02/17 11:21:03;;;;;;;7.47;3.33;;;14.20;84.20;;;;;;5028088;28;20029;-66
2024/02/17 11:23:40;;;;;;;7.65;4.32;;;14.20;83.90;;;;;;5026125;28;20039;-65
2024/02/17 11:26:15;;;;;;;7.47;3.83;;;14.20;84.20;;;;;;5016328;28;20021;-68
2024/02/17 11:28:41;;;;;;;4.40;3.22;;;14.20;84.20;;;;;;5036549;28;20455;-68
2024/02/17 11:31:09;;;;;;;5.20;2.72;;;14.30;84.20;;;;;;5003690;28;20422;-66
2024/02/17 11:33:35;;;;;;;4.47;2.45;;;14.30;84.90;;;;;;5034559;28;20332;-68
2024/02/17 11:36:03;;;;;;;7.05;3.33;;;14.30;84.30;;;;;;5031567;28;20040;-68
2024/02/17 11:38:30;;;;;;;7.20;3.70;;;14.30;84.20;;;;;;5028421;28;20053;-68
2024/02/17 11:41:02;;;;;;;9.57;3.67;;;14.30;84.10;;;;;;5033337;28;20535;-65
2024/02/17 11:43:30;;;;;;;6.72;3.92;;;14.20;84.20;;;;;;5031204;28;20025;-66
2024/02/17 11:45:57;;;;;;;11.05;4.18;;;14.20;84.20;;;;;;5027727;28;20025;-65
2024/02/17 11:48:29;;;;;;;8.15;4.18;;;14.30;84.30;;;;;;5026686;28;20036;-65
2024/02/17 11:51:06;;;;;;;4.47;3.47;;;14.30;84.10;;;;;;5022870;28;20094;-66
2024/02/17 11:53:32;;;;;;;6.45;3.35;;;14.30;84.10;;;;;;5034873;28;20490;-65
2024/02/17 11:56:01;;;;;;;8.02;4.35;;;14.40;84.10;;;;;;5027412;28;20100;-65
2024/02/17 11:58:28;;;;;;;4.85;3.45;;;14.40;83.70;;;;;;5033506;28;20040;-66
2024/02/17 12:00:57;;;;;;;6.68;3.67;;;14.50;83.70;;;;;;5033406;28;20083;-66
2024/02/17 12:03:27;;;;;;;4.28;2.88;;;14.50;83.60;;;;;;5030057;28;20037;-66
2024/02/17 12:05:52;;;;;;;8.85;2.90;;;14.50;83.70;;;;;;5032392;28;20104;-65
2024/02/17 12:08:18;;;;;;;11.93;3.30;;;14.50;83.80;;;;;;5030564;28;20594;-66
2024/02/17 12:10:46;;;;;;;9.88;3.33;;;14.50;83.70;;;;;;5028122;28;20036;-65
2024/02/17 12:13:11;;;;;;;7.80;3.13;;;14.40;83.40;;;;;;5034763;28;20025;-65
2024/02/17 12:15:37;;;;;;;6.88;3.35;;;14.30;83.70;;;;;;5032271;28;20560;-65
2024/02/17 12:18:04;;;;;;;7.18;3.88;;;14.30;83.80;;;;;;5033019;28;20056;-66
2024/02/17 12:20:31;;;;;;;7.88;3.50;;;14.20;83.80;;;;;;5035489;28;20076;-66
2024/02/17 12:22:58;;;;;;;7.70;3.83;;;14.20;83.90;;;;;;5035147;28;20108;-66
2024/02/17 12:25:25;;;;;;;9.95;3.90;;;14.20;83.80;;;;;;5023722;28;20037;-66
2024/02/17 12:27:52;;;;;;;6.45;3.33;;;14.20;83.90;;;;;;5027188;28;20029;-66
2024/02/17 12:30:18;;;;;;;9.00;3.85;;;14.20;84.10;;;;;;5032893;28;20136;-65
2024/02/17 12:32:45;;;;;;;7.00;2.33;;;14.20;84.00;;;;;;5065553;28;20039;-66
2024/02/17 12:35:15;;;;;;;6.68;3.60;;;14.20;83.90;;;;;;5031581;28;20025;-65
2024/02/17 12:37:48;;;;;;;4.93;3.08;;;14.20;83.90;;;;;;5035252;28;20142;-65
2024/02/17 12:40:18;;;;;;;7.22;4.68;;;14.30;84.10;;;;;;5036711;28;20397;-65
2024/02/17 12:42:48;;;;;;;4.60;2.67;;;14.30;83.80;;;;;;5033586;28;20025;-65
2024/02/17 12:45:32;;;;;;;6.43;3.28;;;14.40;83.90;;;;;;5028956;28;20021;-66